Time;durP1;ratioP1;P1;durP2;ratioP2;P2;SDS_P1;SDS_P2;PMS_P1;PMS_P2;Temp;Humidity;BMP_temperature;BMP_pressure;BME280_temperature;BME280_humidity;BME280_pressure;Samples;Min_cycle;Max_cycle;Signal;HPM_P1;HPM_P2
2024/01/19 00:00:41;;;;;;;4.37;2.67;;;-2.20;99.90;;;;;;2049649;28;20222;-64
2024/01/19 00:01:41;;;;;;;4.97;3.00;;;-2.20;99.90;;;;;;2049733;28;20221;-63
2024/01/19 00:02:48;;;;;;;7.30;2.35;;;-2.20;99.90;;;;;;2107667;27;20596;-65
2024/01/19 00:03:49;;;;;;;5.83;2.97;;;-2.20;99.90;;;;;;2101856;28;20588;-64
2024/01/19 00:04:50;;;;;;;3.37;2.27;;;-2.20;99.90;;;;;;2112775;28;20254;-64
2024/01/19 00:05:51;;;;;;;4.43;2.83;;;-2.20;99.90;;;;;;2110111;28;20239;-65
2024/01/19 00:06:52;;;;;;;7.65;2.55;;;-2.30;99.90;;;;;;2101629;28;20231;-65
2024/01/19 00:07:52;;;;;;;4.67;2.43;;;-2.30;99.90;;;;;;2103340;28;20271;-64
2024/01/19 00:08:53;;;;;;;4.13;2.83;;;-2.30;99.90;;;;;;2099595;28;20238;-65
2024/01/19 00:09:54;;;;;;;5.27;2.63;;;-2.30;99.90;;;;;;2093981;28;20284;-64
2024/01/19 00:10:54;;;;;;;4.13;2.40;;;-2.40;99.90;;;;;;2092701;28;20587;-65
2024/01/19 00:11:55;;;;;;;5.70;2.60;;;-2.50;99.90;;;;;;2093670;28;20222;-65
2024/01/19 00:12:56;;;;;;;3.40;2.53;;;-2.50;99.90;;;;;;2093413;28;20226;-64
2024/01/19 00:13:57;;;;;;;5.93;2.45;;;-2.50;99.90;;;;;;2092498;28;20302;-65
2024/01/19 00:14:57;;;;;;;6.27;2.73;;;-2.50;99.90;;;;;;2095150;28;20221;-65
2024/01/19 00:15:58;;;;;;;4.53;2.97;;;-2.40;99.90;;;;;;2095187;28;20576;-65
2024/01/19 00:16:59;;;;;;;5.07;3.57;;;-2.50;99.90;;;;;;2092517;28;20231;-64
2024/01/19 00:17:59;;;;;;;5.73;3.00;;;-2.50;99.90;;;;;;2092676;28;20235;-65
2024/01/19 00:19:00;;;;;;;4.33;2.50;;;-2.50;99.90;;;;;;2095269;28;20230;-65
2024/01/19 00:20:01;;;;;;;4.30;2.97;;;-2.50;99.90;;;;;;2093424;28;21240;-64
2024/01/19 00:21:02;;;;;;;4.10;2.90;;;-2.60;99.90;;;;;;2101655;28;20270;-65
2024/01/19 00:22:03;;;;;;;6.57;3.03;;;-2.50;99.90;;;;;;2102820;28;20203;-65
2024/01/19 00:23:04;;;;;;;4.73;3.03;;;-2.50;99.90;;;;;;2094845;28;20198;-65
2024/01/19 00:24:04;;;;;;;4.80;3.00;;;-2.60;99.90;;;;;;2093459;28;20198;-65
2024/01/19 00:25:06;;;;;;;4.73;2.23;;;-2.60;99.90;;;;;;2089786;28;20198;-64
2024/01/19 00:26:07;;;;;;;6.50;3.30;;;-2.70;99.90;;;;;;2097937;28;20642;-64
2024/01/19 00:27:07;;;;;;;6.10;2.72;;;-2.80;99.90;;;;;;2096892;28;20197;-65
2024/01/19 00:28:08;;;;;;;6.87;3.33;;;-2.80;99.90;;;;;;2097374;28;20182;-64
2024/01/19 00:29:09;;;;;;;5.20;2.83;;;-2.70;99.90;;;;;;2097875;28;20709;-64
2024/01/19 00:30:10;;;;;;;4.77;3.57;;;-2.80;99.90;;;;;;2097157;28;20179;-64
2024/01/19 00:31:11;;;;;;;5.32;3.00;;;-2.80;99.90;;;;;;2097165;28;20607;-65
2024/01/19 00:32:12;;;;;;;6.00;2.80;;;-2.70;99.90;;;;;;2096309;28;20198;-63
2024/01/19 00:33:12;;;;;;;6.30;3.23;;;-2.80;99.90;;;;;;2088080;28;20630;-64
2024/01/19 00:34:14;;;;;;;5.77;2.30;;;-2.80;99.90;;;;;;2095980;28;20223;-65
2024/01/19 00:35:14;;;;;;;5.75;2.47;;;-2.90;99.90;;;;;;2095766;28;20232;-65
2024/01/19 00:36:15;;;;;;;7.63;3.20;;;-2.90;99.90;;;;;;2096561;28;20278;-65
2024/01/19 00:37:16;;;;;;;4.78;2.92;;;-2.90;99.90;;;;;;2096111;28;20214;-63
2024/01/19 00:38:17;;;;;;;8.10;3.13;;;-2.80;99.90;;;;;;2095448;28;20194;-65
2024/01/19 00:39:17;;;;;;;5.03;2.93;;;-2.80;99.90;;;;;;2095070;28;20856;-65
2024/01/19 00:40:18;;;;;;;4.33;2.93;;;-2.80;99.90;;;;;;2093495;28;20259;-64
2024/01/19 00:41:19;;;;;;;4.87;2.90;;;-3.00;99.90;;;;;;2094531;28;20272;-64
2024/01/19 00:42:19;;;;;;;5.17;3.20;;;-3.00;99.90;;;;;;2095392;28;20578;-64
2024/01/19 00:43:20;;;;;;;4.30;3.00;;;-3.00;99.90;;;;;;2093903;28;20223;-64
2024/01/19 00:44:21;;;;;;;5.53;3.27;;;-3.00;99.90;;;;;;2095854;28;20238;-65
2024/01/19 00:45:22;;;;;;;7.07;3.17;;;-3.00;99.90;;;;;;2090595;28;20223;-65
2024/01/19 00:46:23;;;;;;;6.22;3.40;;;-2.90;99.90;;;;;;2094356;28;20230;-64
2024/01/19 00:47:24;;;;;;;6.50;3.08;;;-2.80;99.90;;;;;;2094356;28;20330;-63
2024/01/19 00:48:24;;;;;;;7.00;3.63;;;-2.80;99.90;;;;;;2094229;28;20230;-64
2024/01/19 00:49:25;;;;;;;6.83;3.30;;;-2.80;99.90;;;;;;2094078;28;21583;-65
2024/01/19 00:50:26;;;;;;;4.27;3.00;;;-2.80;99.90;;;;;;2093615;28;20226;-65
2024/01/19 00:51:26;;;;;;;5.07;2.97;;;-2.80;99.90;;;;;;2093529;28;20222;-64
2024/01/19 00:52:27;;;;;;;4.13;2.97;;;-2.80;99.90;;;;;;2093522;28;20621;-64
2024/01/19 00:53:28;;;;;;;6.20;2.97;;;-2.80;99.90;;;;;;2095191;28;20290;-64
2024/01/19 00:54:28;;;;;;;6.40;3.00;;;-2.80;99.90;;;;;;2097952;28;20229;-64
2024/01/19 00:55:30;;;;;;;6.10;2.77;;;-2.80;99.90;;;;;;2098301;28;20234;-63
2024/01/19 00:56:30;;;;;;;7.13;2.92;;;-2.90;99.90;;;;;;2094140;28;20239;-64
2024/01/19 00:57:31;;;;;;;7.23;3.23;;;-2.90;99.90;;;;;;2095450;28;20659;-65
2024/01/19 00:58:32;;;;;;;4.43;2.43;;;-3.00;99.90;;;;;;2085223;28;20246;-65
2024/01/19 00:59:32;;;;;;;5.23;2.73;;;-2.90;99.90;;;;;;2093628;28;20230;-64
2024/01/19 01:00:33;;;;;;;4.67;3.10;;;-2.90;99.90;;;;;;2096380;28;20631;-64
2024/01/19 01:01:34;;;;;;;5.53;2.97;;;-2.90;99.90;;;;;;2096613;28;20294;-65
2024/01/19 01:02:34;;;;;;;5.77;3.00;;;-3.00;99.90;;;;;;2092498;28;20241;-64
2024/01/19 01:03:35;;;;;;;3.27;2.20;;;-3.00;99.90;;;;;;2092439;28;20227;-65
2024/01/19 01:04:36;;;;;;;7.13;2.80;;;-3.10;99.90;;;;;;2094946;28;20211;-64
2024/01/19 01:05:37;;;;;;;4.30;2.50;;;-3.00;99.90;;;;;;2084497;28;20234;-63
2024/01/19 01:06:37;;;;;;;6.27;2.97;;;-3.00;99.90;;;;;;2092796;28;20218;-64
2024/01/19 01:07:39;;;;;;;6.33;3.07;;;-3.10;99.90;;;;;;2092717;28;20276;-64
2024/01/19 01:08:39;;;;;;;4.85;2.53;;;-3.10;99.90;;;;;;2092316;28;20310;-64
2024/01/19 01:09:40;;;;;;;5.07;2.70;;;-3.10;99.90;;;;;;2095209;28;20232;-65
2024/01/19 01:10:41;;;;;;;4.63;2.50;;;-3.10;99.90;;;;;;2093218;28;20721;-65
2024/01/19 01:11:41;;;;;;;6.80;3.07;;;-3.10;99.90;;;;;;2093447;28;20218;-65
2024/01/19 01:12:42;;;;;;;8.33;2.83;;;-3.10;99.90;;;;;;2094379;28;20246;-64
2024/01/19 01:13:43;;;;;;;5.53;2.60;;;-3.10;99.90;;;;;;2091877;28;20243;-65
2024/01/19 01:14:44;;;;;;;3.57;2.40;;;-3.10;99.90;;;;;;2087962;28;20230;-64
2024/01/19 01:15:45;;;;;;;4.97;2.90;;;-3.10;99.90;;;;;;2089128;28;20600;-65
2024/01/19 01:16:46;;;;;;;6.25;3.00;;;-3.20;99.90;;;;;;2085595;28;20233;-65
2024/01/19 01:17:47;;;;;;;6.23;3.27;;;-3.20;99.90;;;;;;2088077;28;20219;-64
2024/01/19 01:18:47;;;;;;;6.03;3.17;;;-3.20;99.90;;;;;;2087729;28;20234;-65
2024/01/19 01:19:48;;;;;;;6.33;3.70;;;-3.30;99.90;;;;;;2091679;28;20237;-64
2024/01/19 01:20:50;;;;;;;5.83;2.90;;;-3.20;99.90;;;;;;2091939;28;20228;-63
2024/01/19 01:21:51;;;;;;;4.63;2.95;;;-3.30;99.90;;;;;;2091404;28;20213;-65
2024/01/19 01:22:52;;;;;;;5.40;2.97;;;-3.30;99.90;;;;;;2091933;28;20563;-64
2024/01/19 01:23:52;;;;;;;7.10;2.80;;;-3.30;99.90;;;;;;2090672;28;20221;-65
2024/01/19 01:24:53;;;;;;;5.23;3.10;;;-3.40;99.90;;;;;;2091254;28;20215;-64
2024/01/19 01:25:54;;;;;;;7.43;3.30;;;-3.50;99.90;;;;;;2091428;28;20217;-64
2024/01/19 01:26:55;;;;;;;5.97;3.57;;;-3.50;99.90;;;;;;2086921;28;20223;-63
2024/01/19 01:27:56;;;;;;;5.03;3.10;;;-3.50;99.90;;;;;;2085295;28;20826;-65
2024/01/19 01:28:57;;;;;;;5.05;3.60;;;-3.60;99.90;;;;;;2089761;28;20903;-65
2024/01/19 01:29:57;;;;;;;7.60;3.33;;;-3.60;99.90;;;;;;2090118;28;20226;-64
2024/01/19 01:30:58;;;;;;;5.47;3.27;;;-3.60;99.90;;;;;;2088989;28;20248;-64
2024/01/19 01:31:59;;;;;;;4.70;3.20;;;-3.60;99.90;;;;;;2090071;28;20245;-65
2024/01/19 01:32:59;;;;;;;3.90;2.67;;;-3.70;99.90;;;;;;2088695;28;20319;-65
2024/01/19 01:34:00;;;;;;;6.10;3.70;;;-3.80;99.90;;;;;;2089784;28;20225;-64
2024/01/19 01:35:01;;;;;;;5.23;3.30;;;-3.80;99.90;;;;;;2089000;28;20249;-63
2024/01/19 01:36:01;;;;;;;6.90;3.20;;;-3.70;99.90;;;;;;2089476;28;20195;-64
2024/01/19 01:37:02;;;;;;;5.53;3.67;;;-3.70;99.90;;;;;;2088396;28;20189;-65
2024/01/19 01:38:04;;;;;;;6.30;3.27;;;-3.80;99.90;;;;;;2089240;28;20265;-63
2024/01/19 01:39:04;;;;;;;5.50;3.65;;;-3.90;99.90;;;;;;2089356;28;20232;-64
2024/01/19 01:40:06;;;;;;;7.23;3.37;;;-3.80;99.90;;;;;;2089188;28;20187;-64
2024/01/19 01:41:06;;;;;;;4.75;3.42;;;-3.80;99.90;;;;;;2087257;28;20185;-65
2024/01/19 01:42:07;;;;;;;4.37;3.40;;;-3.70;99.90;;;;;;2087431;28;20284;-65
2024/01/19 01:43:08;;;;;;;6.40;3.50;;;-3.70;99.90;;;;;;2088036;28;20635;-66
2024/01/19 01:44:08;;;;;;;6.40;3.50;;;-3.80;99.90;;;;;;2087599;28;20250;-64
2024/01/19 01:45:09;;;;;;;7.50;3.63;;;-3.70;99.90;;;;;;2087456;28;20234;-64
2024/01/19 01:46:09;;;;;;;6.67;3.50;;;-3.70;99.90;;;;;;2092043;28;20197;-65
2024/01/19 01:47:10;;;;;;;7.30;3.50;;;-3.70;99.90;;;;;;2091367;28;20194;-65
2024/01/19 01:48:11;;;;;;;5.63;3.23;;;-3.70;99.90;;;;;;2090834;28;20208;-64
2024/01/19 01:49:11;;;;;;;4.20;2.80;;;-3.70;99.90;;;;;;2090801;28;20283;-64
2024/01/19 01:50:12;;;;;;;3.67;2.77;;;-3.80;99.90;;;;;;2091224;28;20183;-64
2024/01/19 01:51:13;;;;;;;7.87;3.20;;;-4.00;99.90;;;;;;2091219;28;20681;-64
2024/01/19 01:52:14;;;;;;;4.43;3.17;;;-4.00;99.90;;;;;;2085156;28;20197;-63
2024/01/19 01:53:18;;;;;;;8.17;3.50;;;-3.90;99.90;;;;;;2088875;28;20197;-64
2024/01/19 01:54:18;;;;;;;6.30;3.42;;;-3.90;99.90;;;;;;2086180;28;20185;-65
2024/01/19 01:55:19;;;;;;;4.43;3.00;;;-4.00;99.90;;;;;;2086451;28;20189;-64
2024/01/19 01:56:19;;;;;;;6.00;3.63;;;-4.00;99.90;;;;;;2090096;28;20243;-64
2024/01/19 01:57:22;;;;;;;4.83;2.80;;;-4.10;99.90;;;;;;2089852;28;20234;-64
2024/01/19 01:58:23;;;;;;;5.57;3.00;;;-4.00;99.90;;;;;;2089410;28;20943;-65
2024/01/19 01:59:24;;;;;;;5.80;3.20;;;-4.00;99.90;;;;;;2088613;28;20248;-64
2024/01/19 02:00:26;;;;;;;6.27;2.80;;;-4.00;99.90;;;;;;2089004;28;20699;-65
2024/01/19 02:01:27;;;;;;;7.07;2.90;;;-4.00;99.90;;;;;;2087877;28;20240;-64
2024/01/19 02:02:27;;;;;;;4.43;2.73;;;-4.00;99.90;;;;;;2089569;28;20242;-63
2024/01/19 02:03:28;;;;;;;4.07;2.77;;;-4.00;99.90;;;;;;2087699;28;20319;-64
2024/01/19 02:04:29;;;;;;;3.83;2.70;;;-4.10;99.90;;;;;;2086735;28;20240;-64
2024/01/19 02:05:30;;;;;;;5.32;2.13;;;-4.10;99.90;;;;;;2088535;28;20252;-64
2024/01/19 02:06:31;;;;;;;5.13;2.70;;;-4.20;99.90;;;;;;2086418;28;20231;-64
2024/01/19 02:07:32;;;;;;;6.17;3.27;;;-4.10;99.90;;;;;;2084694;28;20721;-64
2024/01/19 02:08:33;;;;;;;4.32;2.70;;;-4.20;99.90;;;;;;2086049;28;20281;-65
2024/01/19 02:09:33;;;;;;;7.47;2.90;;;-4.20;99.90;;;;;;2084835;28;20229;-63
2024/01/19 02:10:34;;;;;;;3.30;2.23;;;-4.30;99.90;;;;;;2085811;28;20245;-64
2024/01/19 02:11:36;;;;;;;5.70;2.63;;;-4.30;99.90;;;;;;2085092;28;20229;-64
2024/01/19 02:12:37;;;;;;;5.70;2.60;;;-4.20;99.90;;;;;;2087921;28;20223;-64
2024/01/19 02:13:38;;;;;;;3.65;2.28;;;-4.20;99.90;;;;;;2088547;28;20633;-64
2024/01/19 02:14:38;;;;;;;5.33;2.40;;;-4.20;99.90;;;;;;2088602;28;20228;-64
2024/01/19 02:15:39;;;;;;;3.97;2.30;;;-4.20;99.90;;;;;;2091014;28;20258;-64
2024/01/19 02:16:40;;;;;;;5.47;2.60;;;-4.20;99.90;;;;;;2089480;28;20223;-64
2024/01/19 02:17:41;;;;;;;2.83;1.87;;;-4.00;99.90;;;;;;2087692;28;20284;-65
2024/01/19 02:18:41;;;;;;;7.60;2.77;;;-4.10;99.90;;;;;;2089949;28;20312;-65
2024/01/19 02:19:42;;;;;;;5.03;2.47;;;-4.10;99.90;;;;;;2088051;28;20220;-64
2024/01/19 02:20:43;;;;;;;4.77;2.77;;;-4.10;99.90;;;;;;2088386;28;20223;-64
2024/01/19 02:21:44;;;;;;;4.17;2.17;;;-4.00;99.90;;;;;;2089532;28;20224;-64
2024/01/19 02:22:46;;;;;;;8.25;3.05;;;-4.10;99.90;;;;;;2088675;28;20224;-65
2024/01/19 02:24:03;;;;;;;4.75;3.15;;;-4.10;99.90;;;;;;2088098;28;20227;-64
2024/01/19 02:25:04;;;;;;;3.55;2.35;;;-4.00;99.90;;;;;;2093906;28;20247;-64
2024/01/19 02:26:05;;;;;;;4.25;2.50;;;-4.00;99.90;;;;;;2094286;28;20274;-64
2024/01/19 02:27:07;;;;;;;4.22;2.90;;;-4.00;99.90;;;;;;2088760;28;20320;-64
2024/01/19 02:28:08;;;;;;;4.15;2.50;;;-4.00;99.90;;;;;;2085991;28;20685;-63
2024/01/19 02:29:09;;;;;;;2.63;2.20;;;-4.00;99.90;;;;;;2077324;28;20300;-65
2024/01/19 02:30:11;;;;;;;5.17;2.37;;;-4.00;99.90;;;;;;2085299;28;20211;-64
2024/01/19 02:31:12;;;;;;;8.20;2.80;;;-4.20;99.90;;;;;;2087802;28;20189;-63
2024/01/19 02:32:12;;;;;;;13.93;2.93;;;-4.20;99.90;;;;;;2087445;28;20563;-64
2024/01/19 02:33:13;;;;;;;7.73;2.70;;;-4.20;99.90;;;;;;2086939;28;20181;-64
2024/01/19 02:34:14;;;;;;;4.37;2.70;;;-4.20;99.90;;;;;;2087800;28;20188;-65
2024/01/19 02:35:14;;;;;;;6.23;2.53;;;-4.30;99.90;;;;;;2085449;28;20228;-62
2024/01/19 02:36:15;;;;;;;4.17;2.53;;;-4.20;99.90;;;;;;2088473;28;20183;-64
2024/01/19 02:37:17;;;;;;;3.67;2.33;;;-4.20;99.90;;;;;;2081565;28;20185;-64
2024/01/19 02:38:17;;;;;;;5.15;2.42;;;-4.20;99.90;;;;;;2086282;28;20235;-64
2024/01/19 02:39:19;;;;;;;4.80;2.37;;;-4.20;99.90;;;;;;2088805;28;20641;-63
2024/01/19 02:40:20;;;;;;;5.45;2.70;;;-4.20;99.90;;;;;;2089535;28;20187;-64
2024/01/19 02:41:20;;;;;;;4.47;2.60;;;-4.20;99.90;;;;;;2090044;28;20240;-65
2024/01/19 02:42:21;;;;;;;5.10;2.73;;;-4.20;99.90;;;;;;2089122;28;20311;-64
2024/01/19 02:43:22;;;;;;;5.57;2.10;;;-4.20;99.90;;;;;;2087979;28;20236;-64
2024/01/19 02:44:22;;;;;;;4.73;2.20;;;-4.20;99.90;;;;;;2089429;28;20544;-63
2024/01/19 02:45:23;;;;;;;7.20;3.13;;;-4.30;99.90;;;;;;2087013;28;20225;-65
2024/01/19 02:46:24;;;;;;;4.50;2.27;;;-4.20;99.90;;;;;;2088051;28;20699;-64
2024/01/19 02:47:24;;;;;;;5.77;2.60;;;-4.20;99.90;;;;;;2089049;28;20265;-64
2024/01/19 02:48:25;;;;;;;4.50;2.50;;;-4.10;99.90;;;;;;2090066;28;20232;-65
2024/01/19 02:49:26;;;;;;;3.90;2.57;;;-4.00;99.90;;;;;;2088658;28;20263;-64
2024/01/19 02:50:27;;;;;;;3.73;2.20;;;-4.10;99.90;;;;;;2087751;28;20347;-64
2024/01/19 02:51:27;;;;;;;6.27;2.73;;;-4.00;99.90;;;;;;2089127;28;20236;-64
2024/01/19 02:52:28;;;;;;;4.43;2.30;;;-4.00;99.90;;;;;;2086293;28;20233;-65
2024/01/19 02:53:29;;;;;;;4.30;2.50;;;-4.00;99.90;;;;;;2086133;28;20313;-64
2024/01/19 02:54:29;;;;;;;6.93;2.77;;;-4.00;99.90;;;;;;2086264;28;20231;-64
2024/01/19 02:55:30;;;;;;;4.60;2.60;;;-3.90;99.90;;;;;;2088104;28;20230;-65
2024/01/19 02:56:31;;;;;;;3.90;2.60;;;-3.90;99.90;;;;;;2085983;28;20232;-65
2024/01/19 02:57:31;;;;;;;5.90;2.63;;;-3.90;99.90;;;;;;2085644;28;20319;-65
2024/01/19 02:58:32;;;;;;;5.57;2.20;;;-3.90;99.90;;;;;;2085845;28;20241;-64
2024/01/19 02:59:33;;;;;;;3.27;2.30;;;-3.90;99.90;;;;;;2084582;28;20225;-64
2024/01/19 03:00:33;;;;;;;3.97;2.30;;;-4.00;99.90;;;;;;2084885;28;20639;-65
2024/01/19 03:01:35;;;;;;;4.73;2.70;;;-4.00;99.90;;;;;;2085441;28;20219;-65
2024/01/19 03:02:36;;;;;;;3.88;2.20;;;-3.90;99.90;;;;;;2086284;28;20626;-64
2024/01/19 03:03:36;;;;;;;4.47;2.70;;;-3.90;99.90;;;;;;2085006;28;20227;-63
2024/01/19 03:04:37;;;;;;;5.13;2.73;;;-3.90;99.90;;;;;;2089527;28;20303;-64
2024/01/19 03:05:38;;;;;;;5.43;2.83;;;-3.80;99.90;;;;;;2090906;28;20229;-65
2024/01/19 03:06:39;;;;;;;3.87;2.10;;;-3.80;99.90;;;;;;2088976;28;20297;-63
2024/01/19 03:07:39;;;;;;;4.20;2.57;;;-3.70;99.90;;;;;;2089194;28;20324;-65
2024/01/19 03:08:40;;;;;;;5.63;2.87;;;-3.70;99.90;;;;;;2090079;28;20807;-64
2024/01/19 03:09:41;;;;;;;5.97;2.53;;;-3.70;99.90;;;;;;2088734;28;20266;-64
2024/01/19 03:10:41;;;;;;;6.30;2.90;;;-3.70;99.90;;;;;;2089834;28;20241;-65
2024/01/19 03:11:43;;;;;;;4.90;2.80;;;-3.70;99.90;;;;;;2088473;28;20306;-64
2024/01/19 03:12:44;;;;;;;3.83;2.80;;;-3.70;99.90;;;;;;2084945;28;20222;-65
2024/01/19 03:13:44;;;;;;;4.13;2.77;;;-3.70;99.90;;;;;;2091076;28;20222;-64
2024/01/19 03:14:45;;;;;;;5.70;3.00;;;-3.60;99.90;;;;;;2099691;28;20221;-63
2024/01/19 03:15:46;;;;;;;5.03;2.87;;;-3.50;99.90;;;;;;2090660;28;20226;-65
2024/01/19 03:16:46;;;;;;;5.17;2.93;;;-3.40;99.90;;;;;;2089593;28;20732;-64
2024/01/19 03:17:47;;;;;;;5.27;2.60;;;-3.40;99.90;;;;;;2086530;28;20253;-64
2024/01/19 03:18:48;;;;;;;4.10;2.07;;;-3.30;99.90;;;;;;2087660;28;20230;-63
2024/01/19 03:19:48;;;;;;;2.67;2.00;;;-3.30;99.90;;;;;;2083973;28;20252;-63
2024/01/19 03:20:49;;;;;;;4.33;2.70;;;-3.30;99.90;;;;;;2085066;28;20223;-63
2024/01/19 03:21:50;;;;;;;8.27;3.30;;;-3.30;99.90;;;;;;2085894;28;20219;-64
2024/01/19 03:22:51;;;;;;;5.05;2.80;;;-3.20;99.90;;;;;;2084770;28;20284;-63
2024/01/19 03:23:51;;;;;;;4.73;2.43;;;-3.20;99.90;;;;;;2084289;28;20239;-63
2024/01/19 03:24:52;;;;;;;3.67;2.60;;;-3.20;99.90;;;;;;2082399;28;20233;-64
2024/01/19 03:25:53;;;;;;;5.77;3.30;;;-3.20;99.90;;;;;;2086441;28;20235;-62
2024/01/19 03:26:54;;;;;;;4.03;3.07;;;-3.20;99.90;;;;;;2086472;28;20234;-63
2024/01/19 03:27:54;;;;;;;7.37;3.10;;;-3.20;99.90;;;;;;2085841;28;20463;-64
2024/01/19 03:28:55;;;;;;;5.97;3.37;;;-3.20;99.90;;;;;;2086081;28;20230;-64
2024/01/19 03:29:56;;;;;;;4.30;2.83;;;-3.20;99.90;;;;;;2086002;28;20299;-63
2024/01/19 03:30:57;;;;;;;5.43;3.77;;;-3.10;99.90;;;;;;2085773;28;20257;-63
2024/01/19 03:31:57;;;;;;;6.57;4.00;;;-3.10;99.90;;;;;;2098310;28;20229;-63
2024/01/19 03:32:58;;;;;;;4.43;2.97;;;-3.00;99.90;;;;;;2098171;28;20221;-63
2024/01/19 03:33:59;;;;;;;5.03;2.97;;;-3.00;99.90;;;;;;2080568;28;21218;-63
2024/01/19 03:34:59;;;;;;;5.60;3.13;;;-2.90;99.90;;;;;;2085639;28;20247;-62
2024/01/19 03:36:00;;;;;;;4.10;3.10;;;-2.80;99.90;;;;;;2084872;28;20216;-63
2024/01/19 03:37:03;;;;;;;5.43;3.43;;;-2.80;99.90;;;;;;2085505;28;20220;-62
2024/01/19 03:38:04;;;;;;;4.82;3.35;;;-2.70;99.90;;;;;;2078661;28;20276;-63
2024/01/19 03:39:06;;;;;;;5.60;3.33;;;-2.80;99.90;;;;;;2078163;28;20239;-63
2024/01/19 03:40:07;;;;;;;4.93;3.13;;;-2.70;99.90;;;;;;2083017;28;20201;-63
2024/01/19 03:41:08;;;;;;;4.57;3.40;;;-2.70;99.90;;;;;;2088112;28;20211;-63
2024/01/19 03:42:09;;;;;;;4.07;2.83;;;-2.70;99.90;;;;;;2086159;28;20183;-63
2024/01/19 03:43:09;;;;;;;6.50;3.73;;;-2.70;99.90;;;;;;2083544;28;20219;-63
2024/01/19 03:44:10;;;;;;;7.20;4.00;;;-2.70;99.90;;;;;;2087619;28;20456;-64
2024/01/19 03:45:11;;;;;;;5.37;3.47;;;-2.70;99.90;;;;;;2081807;28;20184;-63
2024/01/19 03:46:11;;;;;;;4.23;2.80;;;-2.60;99.90;;;;;;2082734;28;20184;-63
2024/01/19 03:47:12;;;;;;;4.60;3.00;;;-2.60;99.90;;;;;;2081737;28;20191;-64
2024/01/19 03:48:13;;;;;;;12.13;7.30;;;-2.60;99.90;;;;;;2081582;28;20210;-63
2024/01/19 03:49:13;;;;;;;7.33;4.60;;;-2.50;99.90;;;;;;2080588;28;20338;-62
2024/01/19 03:50:14;;;;;;;4.53;3.33;;;-2.50;99.90;;;;;;2081547;28;20181;-61
2024/01/19 03:51:15;;;;;;;7.87;3.43;;;-2.50;99.90;;;;;;2083908;28;20587;-63
2024/01/19 03:52:16;;;;;;;5.80;3.10;;;-2.40;99.90;;;;;;2086287;28;20602;-62
2024/01/19 03:53:16;;;;;;;4.97;3.28;;;-2.40;99.90;;;;;;2082833;28;20212;-63
2024/01/19 03:54:17;;;;;;;5.00;3.00;;;-2.50;99.90;;;;;;2086051;28;20191;-64
2024/01/19 03:55:18;;;;;;;6.38;3.30;;;-2.50;99.90;;;;;;2079710;28;20187;-63
2024/01/19 03:56:19;;;;;;;6.80;3.37;;;-2.50;99.90;;;;;;2082449;28;20580;-64
2024/01/19 03:57:19;;;;;;;5.57;3.40;;;-2.40;99.90;;;;;;2082126;28;20232;-62
2024/01/19 03:58:20;;;;;;;5.13;3.70;;;-2.40;99.90;;;;;;2082311;28;20180;-63
2024/01/19 03:59:21;;;;;;;6.27;3.40;;;-2.40;99.90;;;;;;2081896;28;20244;-63
2024/01/19 04:00:21;;;;;;;3.57;2.90;;;-2.40;99.90;;;;;;2081705;28;20762;-64
2024/01/19 04:01:22;;;;;;;4.57;2.87;;;-2.40;99.90;;;;;;2081661;28;20258;-64
2024/01/19 04:02:22;;;;;;;7.87;3.40;;;-2.40;99.90;;;;;;2087230;28;20297;-62
2024/01/19 04:03:23;;;;;;;4.70;3.43;;;-2.40;99.90;;;;;;2085030;28;20234;-64
2024/01/19 04:04:25;;;;;;;4.10;3.00;;;-2.40;99.90;;;;;;2091329;28;20731;-63
2024/01/19 04:05:26;;;;;;;5.97;3.20;;;-2.30;99.90;;;;;;2083946;28;20238;-63
2024/01/19 04:06:26;;;;;;;6.57;3.70;;;-2.20;99.90;;;;;;2085541;28;20266;-63
2024/01/19 04:07:27;;;;;;;7.37;3.60;;;-2.10;99.90;;;;;;2084369;28;20326;-64
2024/01/19 04:08:28;;;;;;;8.03;4.07;;;-2.20;99.90;;;;;;2080804;28;20315;-63
2024/01/19 04:09:28;;;;;;;6.37;4.03;;;-2.20;99.90;;;;;;2086834;28;20310;-63
2024/01/19 04:10:29;;;;;;;5.27;3.30;;;-2.10;99.90;;;;;;2080872;28;20230;-63
2024/01/19 04:11:36;;;;;;;5.60;2.80;;;-2.10;99.90;;;;;;2080365;28;20265;-64
2024/01/19 04:12:37;;;;;;;4.55;3.05;;;-2.10;99.90;;;;;;2088447;28;20228;-64
2024/01/19 04:13:38;;;;;;;5.10;3.23;;;-2.10;99.90;;;;;;2078893;28;20233;-62
2024/01/19 04:14:40;;;;;;;6.20;4.00;;;-2.10;99.90;;;;;;2080113;28;20250;-64
2024/01/19 04:15:41;;;;;;;8.02;3.53;;;-2.10;99.90;;;;;;2081373;28;20222;-64
2024/01/19 04:16:42;;;;;;;6.03;3.23;;;-2.10;99.90;;;;;;2081162;28;20222;-62
2024/01/19 04:17:42;;;;;;;6.37;3.07;;;-2.10;99.90;;;;;;2081560;28;20223;-63
2024/01/19 04:18:43;;;;;;;4.87;2.97;;;-2.00;99.90;;;;;;2078708;28;20688;-64
2024/01/19 04:19:44;;;;;;;6.47;3.28;;;-2.00;99.90;;;;;;2088905;28;20705;-64
2024/01/19 04:20:45;;;;;;;4.68;3.10;;;-1.90;99.90;;;;;;2087445;28;20231;-64
2024/01/19 04:21:46;;;;;;;4.80;2.70;;;-1.90;99.90;;;;;;2089317;28;20273;-62
2024/01/19 04:22:46;;;;;;;5.67;3.60;;;-2.00;99.90;;;;;;2088586;28;20332;-64
2024/01/19 04:23:48;;;;;;;4.10;2.67;;;-2.00;99.90;;;;;;2084870;28;20307;-64
2024/01/19 04:24:48;;;;;;;4.20;2.50;;;-2.00;99.90;;;;;;2080978;28;20226;-64
2024/01/19 04:25:49;;;;;;;5.17;3.07;;;-2.00;99.90;;;;;;2081331;28;20216;-64
2024/01/19 04:26:50;;;;;;;6.53;3.23;;;-1.90;99.90;;;;;;2075905;28;20224;-63
2024/01/19 04:27:51;;;;;;;7.60;3.30;;;-1.90;99.90;;;;;;2084409;28;20357;-63
2024/01/19 04:28:51;;;;;;;4.60;2.80;;;-2.00;99.90;;;;;;2083833;28;20809;-64
2024/01/19 04:29:52;;;;;;;7.27;3.20;;;-2.00;99.90;;;;;;2083465;28;20861;-63
2024/01/19 04:30:53;;;;;;;4.17;3.00;;;-2.00;99.90;;;;;;2085797;28;20305;-63
2024/01/19 04:31:53;;;;;;;5.97;3.47;;;-2.00;99.90;;;;;;2082847;28;20819;-64
2024/01/19 04:32:54;;;;;;;5.03;3.03;;;-2.00;99.90;;;;;;2083965;28;20234;-63
2024/01/19 04:33:55;;;;;;;5.53;3.13;;;-2.00;99.90;;;;;;2083394;28;20221;-64
2024/01/19 04:34:55;;;;;;;19.60;3.40;;;-2.00;99.90;;;;;;2079981;28;20224;-64
2024/01/19 04:35:56;;;;;;;3.50;2.40;;;-2.00;99.90;;;;;;2080834;28;20712;-63
2024/01/19 04:36:57;;;;;;;4.53;2.70;;;-2.00;99.90;;;;;;2081437;28;20220;-64
2024/01/19 04:37:58;;;;;;;3.17;2.10;;;-2.00;99.90;;;;;;2081126;28;20215;-64
2024/01/19 04:38:58;;;;;;;3.57;2.60;;;-2.10;99.90;;;;;;2082086;28;20231;-63
2024/01/19 04:39:59;;;;;;;4.97;2.70;;;-2.10;99.90;;;;;;2081854;28;20232;-63
2024/01/19 04:41:00;;;;;;;4.93;2.83;;;-2.10;99.90;;;;;;2081656;28;20228;-64
2024/01/19 04:42:00;;;;;;;2.93;2.17;;;-2.00;99.90;;;;;;2081115;28;20779;-64
2024/01/19 04:43:01;;;;;;;4.47;2.67;;;-2.10;99.90;;;;;;2080563;28;20217;-64
2024/01/19 04:44:02;;;;;;;5.23;3.17;;;-2.10;99.90;;;;;;2084855;28;20202;-64
2024/01/19 04:45:03;;;;;;;4.22;2.22;;;-2.00;99.90;;;;;;2083474;28;20191;-64
2024/01/19 04:46:04;;;;;;;3.15;2.08;;;-2.10;99.90;;;;;;2081816;28;20193;-62
2024/01/19 04:47:05;;;;;;;5.43;2.33;;;-2.10;99.90;;;;;;2085493;28;20581;-63
2024/01/19 04:48:06;;;;;;;4.13;2.33;;;-2.10;99.90;;;;;;2086580;28;20195;-62
2024/01/19 04:49:06;;;;;;;3.97;2.53;;;-2.10;99.90;;;;;;2081939;28;20201;-63
2024/01/19 04:50:08;;;;;;;3.83;2.17;;;-2.10;99.90;;;;;;2084564;28;20549;-63
2024/01/19 04:51:08;;;;;;;4.60;2.47;;;-2.10;99.90;;;;;;2091540;28;20660;-63
2024/01/19 04:52:09;;;;;;;4.23;2.40;;;-2.10;99.90;;;;;;2090611;28;20184;-64
2024/01/19 04:53:10;;;;;;;4.93;2.93;;;-2.00;99.90;;;;;;2083020;28;20192;-64
2024/01/19 04:54:10;;;;;;;3.73;2.40;;;-2.00;99.90;;;;;;2082953;28;20245;-63
2024/01/19 04:55:11;;;;;;;3.77;2.30;;;-2.00;99.90;;;;;;2089704;28;20658;-64
2024/01/19 04:56:12;;;;;;;4.03;2.77;;;-2.00;99.90;;;;;;2091977;28;20194;-64
2024/01/19 04:57:12;;;;;;;4.13;2.30;;;-2.00;99.90;;;;;;2083589;28;20610;-63
2024/01/19 04:58:13;;;;;;;4.33;2.10;;;-2.00;99.90;;;;;;2086230;28;20203;-64
2024/01/19 04:59:13;;;;;;;4.07;2.53;;;-2.00;99.90;;;;;;2086466;28;20261;-64
2024/01/19 05:00:15;;;;;;;4.57;2.33;;;-2.00;99.90;;;;;;2083983;28;20189;-64
2024/01/19 05:01:17;;;;;;;3.58;2.40;;;-2.10;99.90;;;;;;2084477;28;20234;-64
2024/01/19 05:02:18;;;;;;;5.47;2.30;;;-2.10;99.90;;;;;;2085564;28;20678;-63
2024/01/19 05:03:18;;;;;;;3.80;2.37;;;-2.10;99.90;;;;;;2084732;28;20267;-63
2024/01/19 05:04:19;;;;;;;4.67;2.60;;;-2.10;99.90;;;;;;2088574;28;20297;-63
2024/01/19 05:05:20;;;;;;;3.90;2.00;;;-2.10;99.90;;;;;;2083284;28;20267;-64
2024/01/19 05:06:20;;;;;;;4.73;2.50;;;-2.20;99.90;;;;;;2083892;28;20421;-63
2024/01/19 05:07:21;;;;;;;3.80;2.07;;;-2.10;99.90;;;;;;2082754;28;20674;-63
2024/01/19 05:08:22;;;;;;;3.93;2.33;;;-2.20;99.90;;;;;;2074473;28;20338;-64
2024/01/19 05:09:22;;;;;;;4.03;2.57;;;-2.10;99.90;;;;;;2085785;28;20325;-63
2024/01/19 05:10:23;;;;;;;2.97;1.80;;;-2.10;99.90;;;;;;2086886;28;20239;-62
2024/01/19 05:11:24;;;;;;;4.23;2.20;;;-2.20;99.90;;;;;;2087129;28;20227;-62
2024/01/19 05:12:24;;;;;;;2.97;1.80;;;-2.20;99.90;;;;;;2086402;28;20234;-63
2024/01/19 05:13:25;;;;;;;3.20;2.30;;;-2.20;99.90;;;;;;2082830;28;20227;-63
2024/01/19 05:14:26;;;;;;;3.83;2.53;;;-2.30;99.90;;;;;;2083085;28;20224;-63
2024/01/19 05:15:26;;;;;;;4.73;2.10;;;-2.20;99.90;;;;;;2089000;28;20277;-64
2024/01/19 05:16:27;;;;;;;2.40;1.87;;;-2.20;99.90;;;;;;2086668;28;20251;-63